createdAt,value
2018-08-20T00:01:31.147Z,4.30
2018-08-20T00:04:02.271Z,4.87
2018-08-20T00:06:41.361Z,4.57
2018-08-20T00:09:09.599Z,3.77
2018-08-20T00:11:37.802Z,4.13
2018-08-20T00:14:06.054Z,4.33
2018-08-20T00:16:34.841Z,4.80
2018-08-20T00:19:03.004Z,4.30
2018-08-20T00:21:31.165Z,4.60
2018-08-20T00:23:59.346Z,4.20
2018-08-20T00:26:29.039Z,4.37
2018-08-20T00:28:57.273Z,4.13
2018-08-20T00:31:25.429Z,4.63
2018-08-20T00:33:53.611Z,4.43
2018-08-20T00:36:21.778Z,4.23
2018-08-20T00:38:50.066Z,4.00
2018-08-20T00:41:18.290Z,4.30
2018-08-20T00:43:46.464Z,4.17
2018-08-20T00:46:14.633Z,4.27
2018-08-20T00:48:42.813Z,4.27
2018-08-20T00:51:10.990Z,3.90
2018-08-20T00:53:39.135Z,4.60
2018-08-20T00:56:07.295Z,4.13
2018-08-20T00:58:36.013Z,4.53
2018-08-20T01:01:04.341Z,4.80
2018-08-20T01:03:32.517Z,4.20
2018-08-20T01:06:00.693Z,4.30
2018-08-20T01:08:28.908Z,4.57
2018-08-20T01:10:58.338Z,4.20
2018-08-20T01:13:26.585Z,4.83
2018-08-20T01:15:54.845Z,4.33
2018-08-20T01:18:23.005Z,4.60
2018-08-20T01:20:51.265Z,4.90
2018-08-20T01:23:19.434Z,4.90
2018-08-20T01:25:47.624Z,4.90
2018-08-20T01:28:15.777Z,4.83
2018-08-20T01:30:44.081Z,4.97
2018-08-20T01:33:16.166Z,4.90
2018-08-20T01:35:44.341Z,4.47
2018-08-20T01:38:12.724Z,4.57
2018-08-20T01:40:40.900Z,4.23
2018-08-20T01:43:09.047Z,4.23
2018-08-20T01:45:37.200Z,4.57
2018-08-20T01:48:05.465Z,4.23
2018-08-20T01:50:33.635Z,3.90
2018-08-20T01:53:01.781Z,4.23
2018-08-20T01:55:29.951Z,4.60
2018-08-20T01:57:58.215Z,4.43
2018-08-20T02:00:26.490Z,4.13
2018-08-20T02:02:55.532Z,4.23
2018-08-20T02:05:24.185Z,4.27
2018-08-20T02:07:52.458Z,4.07
2018-08-20T02:10:20.789Z,4.20
2018-08-20T02:12:48.977Z,4.33
2018-08-20T02:15:17.134Z,4.13
2018-08-20T02:17:45.290Z,4.30
2018-08-20T02:20:13.677Z,4.47
2018-08-20T02:22:41.833Z,4.53
2018-08-20T02:25:10.021Z,3.97
2018-08-20T02:27:38.241Z,4.10
2018-08-20T02:30:06.629Z,4.20
2018-08-20T02:32:35.288Z,4.47
2018-08-20T02:35:03.448Z,4.40
2018-08-20T02:37:35.868Z,4.57
2018-08-20T02:40:06.091Z,4.70
2018-08-20T02:42:35.158Z,4.47
2018-08-20T02:45:04.486Z,4.60
2018-08-20T02:47:32.654Z,4.57
2018-08-20T02:50:00.994Z,4.70
2018-08-20T02:52:29.345Z,4.97
2018-08-20T02:54:57.509Z,4.40
2018-08-20T02:57:25.658Z,4.00
2018-08-20T02:59:53.869Z,4.27
2018-08-20T03:02:22.099Z,4.87
2018-08-20T03:04:50.398Z,4.67
2018-08-20T03:07:18.681Z,4.47
2018-08-20T03:09:46.921Z,4.73
2018-08-20T03:12:15.121Z,4.10
2018-08-20T03:14:43.398Z,4.53
2018-08-20T03:17:11.653Z,4.80
2018-08-20T03:19:39.867Z,4.40
2018-08-20T03:22:08.070Z,4.03
2018-08-20T03:24:36.299Z,3.93
2018-08-20T03:27:04.497Z,4.60
2018-08-20T03:29:32.723Z,4.00
2018-08-20T03:32:00.944Z,4.40
2018-08-20T03:34:29.151Z,4.60
2018-08-20T03:36:57.394Z,4.53
2018-08-20T03:39:25.579Z,4.53
2018-08-20T03:41:53.808Z,4.50
2018-08-20T03:44:21.983Z,4.33
2018-08-20T03:46:50.617Z,4.40
2018-08-20T03:49:18.812Z,4.37
2018-08-20T03:51:47.089Z,4.27
2018-08-20T03:54:15.305Z,4.43
2018-08-20T03:56:43.596Z,4.80
2018-08-20T03:59:26.237Z,4.30
2018-08-20T04:01:54.434Z,4.47
2018-08-20T04:04:22.610Z,4.43
2018-08-20T04:06:50.949Z,4.43
2018-08-20T04:09:19.355Z,4.50
2018-08-20T04:11:47.575Z,4.33
2018-08-20T04:14:15.765Z,4.63
2018-08-20T04:16:44.015Z,4.10
2018-08-20T04:19:12.480Z,4.43
2018-08-20T04:21:40.681Z,4.30
2018-08-20T04:24:08.874Z,4.63
2018-08-20T04:26:37.076Z,4.50
2018-08-20T04:29:05.578Z,4.63
2018-08-20T04:31:33.793Z,4.23
2018-08-20T04:34:02.035Z,4.40
2018-08-20T04:36:30.227Z,4.43
2018-08-20T04:38:58.449Z,4.90
2018-08-20T04:41:26.742Z,4.27
2018-08-20T04:43:55.143Z,4.00
2018-08-20T04:46:23.313Z,4.10
2018-08-20T04:48:51.533Z,4.40
2018-08-20T04:51:20.276Z,5.00
2018-08-20T04:53:48.293Z,4.53
2018-08-20T04:56:16.496Z,4.33
2018-08-20T04:58:44.733Z,4.37
2018-08-20T05:01:13.061Z,4.07
2018-08-20T05:03:41.457Z,4.80
2018-08-20T05:06:09.738Z,4.77
2018-08-20T05:08:37.965Z,4.63
2018-08-20T05:11:06.245Z,5.17
2018-08-20T05:13:35.288Z,5.00
2018-08-20T05:16:03.515Z,5.13
2018-08-20T05:18:32.145Z,4.93
2018-08-20T05:21:00.320Z,5.07
2018-08-20T05:23:28.639Z,5.20
2018-08-20T05:25:57.648Z,4.60
2018-08-20T05:28:25.825Z,5.53
2018-08-20T05:30:54.107Z,5.37
2018-08-20T05:33:22.257Z,5.60
2018-08-20T05:35:50.542Z,5.40
2018-08-20T05:38:18.803Z,5.17
2018-08-20T05:40:47.010Z,5.00
2018-08-20T05:43:15.198Z,5.10
2018-08-20T05:45:43.445Z,5.33
2018-08-20T05:48:11.659Z,5.33
2018-08-20T05:50:39.929Z,5.30
2018-08-20T05:53:08.144Z,4.87
2018-08-20T05:55:36.358Z,5.53
2018-08-20T05:58:04.624Z,5.20
2018-08-20T06:00:32.814Z,5.27
2018-08-20T06:03:07.617Z,4.50
2018-08-20T06:05:35.810Z,4.67
2018-08-20T06:08:03.989Z,4.73
2018-08-20T06:10:32.180Z,4.83
2018-08-20T06:13:00.353Z,5.53
2018-08-20T06:15:29.164Z,4.33
2018-08-20T06:17:57.346Z,4.50
2018-08-20T06:20:25.527Z,4.33
2018-08-20T06:22:53.770Z,4.63
2018-08-20T06:25:21.961Z,5.43
2018-08-20T06:27:50.275Z,4.77
2018-08-20T06:30:19.120Z,4.90
2018-08-20T06:32:47.441Z,4.77
2018-08-20T06:35:15.649Z,5.00
2018-08-20T06:37:44.005Z,5.03
2018-08-20T06:40:14.850Z,5.00
2018-08-20T06:42:43.522Z,4.93
2018-08-20T06:45:14.026Z,5.27
2018-08-20T06:47:43.039Z,5.23
2018-08-20T06:50:11.259Z,5.40
2018-08-20T06:52:40.095Z,4.67
2018-08-20T06:55:08.302Z,4.87
2018-08-20T06:57:37.446Z,4.70
2018-08-20T07:00:07.593Z,4.57
2018-08-20T07:02:35.942Z,4.70
2018-08-20T07:05:05.113Z,4.67
2018-08-20T07:07:33.316Z,4.60
2018-08-20T07:10:01.597Z,4.70
2018-08-20T07:12:29.953Z,4.17
2018-08-20T07:14:58.304Z,5.00
2018-08-20T07:17:26.511Z,4.40
2018-08-20T07:20:01.249Z,4.70
2018-08-20T07:22:29.433Z,4.50
2018-08-20T07:24:57.644Z,4.47
2018-08-20T07:27:26.010Z,5.10
2018-08-20T07:29:54.188Z,4.67
2018-08-20T07:32:22.353Z,4.50
2018-08-20T07:34:50.681Z,4.83
2018-08-20T07:37:18.926Z,4.97
2018-08-20T07:39:48.219Z,5.30
2018-08-20T07:42:16.442Z,4.62
2018-08-20T07:44:45.224Z,5.00
2018-08-20T07:47:13.583Z,4.55
2018-08-20T07:49:41.985Z,4.87
2018-08-20T07:52:10.839Z,4.37
2018-08-20T07:54:39.858Z,5.10
2018-08-20T07:57:09.653Z,4.70
2018-08-20T07:59:38.093Z,4.85
2018-08-20T08:02:06.895Z,4.80
2018-08-20T08:04:35.202Z,4.92
2018-08-20T08:07:03.452Z,4.25
2018-08-20T08:09:31.763Z,4.37
2018-08-20T08:12:00.102Z,5.12
2018-08-20T08:14:28.294Z,4.62
2018-08-20T08:16:56.801Z,4.85
2018-08-20T08:19:25.375Z,4.67
2018-08-20T08:21:53.667Z,4.28
2018-08-20T08:24:21.973Z,4.47
2018-08-20T08:26:50.169Z,4.10
2018-08-20T08:29:18.510Z,4.92
2018-08-20T08:31:46.693Z,4.30
2018-08-20T08:34:14.954Z,4.25
2018-08-20T08:36:43.974Z,4.40
2018-08-20T08:39:12.741Z,4.47
2018-08-20T08:41:41.119Z,4.08
2018-08-20T08:44:10.663Z,4.65
2018-08-20T08:46:38.909Z,4.05
2018-08-20T08:49:07.136Z,4.15
2018-08-20T08:51:35.396Z,4.10
2018-08-20T08:54:04.638Z,5.08
2018-08-20T08:56:32.986Z,4.58
2018-08-20T08:59:01.289Z,4.45
2018-08-20T09:01:29.582Z,4.08
2018-08-20T09:03:57.911Z,4.10
2018-08-20T09:06:26.093Z,3.95
2018-08-20T09:08:54.284Z,4.37
2018-08-20T09:11:22.473Z,4.60
2018-08-20T09:13:50.782Z,3.92
2018-08-20T09:16:18.934Z,4.00
2018-08-20T09:18:48.871Z,4.62
2018-08-20T09:21:17.082Z,4.45
2018-08-20T09:23:45.262Z,3.92
2018-08-20T09:26:13.518Z,4.15
2018-08-20T09:28:41.706Z,4.15
2018-08-20T09:31:09.884Z,3.70
2018-08-20T09:33:38.070Z,3.62
2018-08-20T09:36:06.334Z,4.30
2018-08-20T09:38:34.514Z,4.37
2018-08-20T09:41:02.694Z,4.15
2018-08-20T09:43:30.909Z,4.00
2018-08-20T09:45:59.174Z,3.77
2018-08-20T09:48:27.449Z,3.92
2018-08-20T09:50:55.657Z,4.22
2018-08-20T09:53:24.043Z,3.77
2018-08-20T09:55:52.197Z,4.47
2018-08-20T09:58:20.455Z,4.00
2018-08-20T10:00:48.634Z,3.85
2018-08-20T10:03:16.849Z,4.20
2018-08-20T10:05:45.177Z,4.60
2018-08-20T10:08:13.388Z,4.50
2018-08-20T10:10:41.581Z,4.05
2018-08-20T10:13:09.749Z,3.87
2018-08-20T10:15:38.002Z,4.15
2018-08-20T10:18:06.686Z,4.20
2018-08-20T10:20:34.905Z,4.40
2018-08-20T10:23:03.097Z,4.50
2018-08-20T10:25:31.282Z,4.37
2018-08-20T10:27:59.615Z,4.22
2018-08-20T10:30:27.816Z,4.72
2018-08-20T10:32:55.994Z,4.17
2018-08-20T10:35:24.193Z,4.28
2018-08-20T10:37:52.565Z,4.45
2018-08-20T10:40:20.642Z,3.80
2018-08-20T10:42:48.818Z,4.37
2018-08-20T10:45:24.229Z,4.37
2018-08-20T10:47:52.419Z,4.70
2018-08-20T10:50:21.122Z,4.45
2018-08-20T10:52:51.312Z,4.17
2018-08-20T10:55:19.566Z,4.50
2018-08-20T10:57:47.837Z,4.45
2018-08-20T11:00:16.550Z,3.90
2018-08-20T11:02:44.889Z,4.30
2018-08-20T11:05:14.849Z,4.37
2018-08-20T11:07:43.157Z,4.25
2018-08-20T11:10:11.603Z,3.87
2018-08-20T11:12:39.758Z,3.75
2018-08-20T11:15:09.394Z,4.30
2018-08-20T11:17:38.077Z,4.35
2018-08-20T11:20:08.791Z,4.10
2018-08-20T11:22:37.082Z,3.92
2018-08-20T11:25:06.198Z,3.60
2018-08-20T11:27:34.504Z,3.52
2018-08-20T11:30:02.727Z,3.70
2018-08-20T11:32:30.913Z,3.50
2018-08-20T11:34:59.187Z,4.25
2018-08-20T11:37:27.383Z,4.30
2018-08-20T11:39:55.565Z,4.45
2018-08-20T11:42:23.816Z,3.80
2018-08-20T11:44:52.878Z,3.37
2018-08-20T11:47:21.081Z,3.42
2018-08-20T11:49:50.127Z,3.70
2018-08-20T11:52:18.323Z,3.90
2018-08-20T11:54:46.573Z,4.20
2018-08-20T11:57:15.061Z,4.65
2018-08-20T11:59:43.398Z,4.60
2018-08-20T12:02:11.627Z,4.58
2018-08-20T12:04:39.906Z,4.55
2018-08-20T12:07:08.114Z,4.90
2018-08-20T12:09:36.309Z,4.30
2018-08-20T12:12:04.591Z,4.72
2018-08-20T12:14:32.758Z,5.00
2018-08-20T12:17:00.921Z,5.08
2018-08-20T12:19:29.201Z,5.15
2018-08-20T12:21:57.436Z,4.72
2018-08-20T12:24:25.640Z,4.83
2018-08-20T12:26:54.035Z,4.55
2018-08-20T12:29:22.253Z,5.25
2018-08-20T12:31:50.449Z,5.03
2018-08-20T12:34:18.661Z,5.47
2018-08-20T12:36:46.821Z,4.42
2018-08-20T12:39:15.023Z,4.53
2018-08-20T12:41:43.411Z,4.50
2018-08-20T12:44:11.578Z,4.65
2018-08-20T12:46:39.749Z,4.83
2018-08-20T12:49:07.949Z,4.25
2018-08-20T12:51:36.206Z,4.33
2018-08-20T12:54:04.446Z,4.00
2018-08-20T12:56:32.738Z,4.55
2018-08-20T12:59:01.242Z,4.45
2018-08-20T13:01:29.482Z,4.17
2018-08-20T13:03:57.862Z,4.22
2018-08-20T13:06:26.037Z,4.15
2018-08-20T13:08:54.291Z,4.80
2018-08-20T13:11:22.608Z,4.58
2018-08-20T13:13:50.840Z,4.95
2018-08-20T13:16:19.104Z,4.65
2018-08-20T13:18:47.261Z,4.72
2018-08-20T13:21:15.533Z,5.15
2018-08-20T13:23:43.790Z,4.22
2018-08-20T13:26:11.996Z,4.53
2018-08-20T13:28:40.185Z,3.83
2018-08-20T13:31:08.405Z,4.30
2018-08-20T13:33:37.145Z,4.20
2018-08-20T13:36:05.453Z,4.45
2018-08-20T13:38:33.671Z,4.20
2018-08-20T13:41:02.489Z,4.95
2018-08-20T13:43:30.730Z,4.45
2018-08-20T13:45:58.975Z,4.33
2018-08-20T13:48:27.165Z,4.28
2018-08-20T13:50:55.585Z,4.03
2018-08-20T13:53:23.880Z,3.85
2018-08-20T13:55:52.945Z,3.87
2018-08-20T13:58:21.141Z,3.72
2018-08-20T14:00:49.455Z,3.60
2018-08-20T14:03:17.870Z,4.20
2018-08-20T14:05:46.063Z,4.22
2018-08-20T14:08:14.424Z,3.75
2018-08-20T14:13:45.959Z,4.50
2018-08-20T14:16:14.172Z,4.28
2018-08-20T14:18:42.361Z,4.10
2018-08-20T14:21:12.709Z,4.72
2018-08-20T14:23:45.026Z,5.08
2018-08-20T14:26:13.515Z,4.50
2018-08-20T14:28:41.702Z,4.80
2018-08-20T14:31:10.009Z,5.33
2018-08-20T14:33:38.367Z,5.08
2018-08-20T14:36:06.965Z,4.62
2018-08-20T14:38:35.495Z,4.35
2018-08-20T14:41:04.171Z,4.60
2018-08-20T14:43:32.389Z,4.28
2018-08-20T14:46:06.206Z,3.90
2018-08-20T14:48:34.379Z,4.30
2018-08-20T14:51:02.564Z,4.00
2018-08-20T14:53:30.853Z,4.05
2018-08-20T14:55:59.089Z,4.47
2018-08-20T14:58:27.603Z,4.28
2018-08-20T15:00:55.910Z,4.60
2018-08-20T15:03:24.118Z,5.17
2018-08-20T15:05:52.377Z,5.05
2018-08-20T15:08:20.640Z,5.15
2018-08-20T15:10:55.533Z,4.45
2018-08-20T15:13:23.730Z,4.10
2018-08-20T15:15:52.141Z,3.98
2018-08-20T15:18:20.387Z,3.77
2018-08-20T15:20:48.589Z,4.00
2018-08-20T15:23:17.719Z,4.08
2018-08-20T15:25:46.105Z,3.37
2018-08-20T15:28:14.429Z,4.10
2018-08-20T15:30:42.717Z,3.55
2018-08-20T15:33:10.909Z,3.30
2018-08-20T15:35:39.149Z,3.62
2018-08-20T15:38:07.718Z,3.30
2018-08-20T15:40:36.055Z,3.55
2018-08-20T15:43:04.261Z,3.27
2018-08-20T15:45:32.509Z,3.83
2018-08-20T15:48:00.801Z,3.15
2018-08-20T15:50:29.058Z,3.65
2018-08-20T15:52:57.464Z,3.50
2018-08-20T15:55:25.709Z,3.47
2018-08-20T15:57:53.910Z,3.90
2018-08-20T16:00:22.289Z,3.55
2018-08-20T16:02:50.496Z,3.45
2018-08-20T16:05:18.930Z,3.25
2018-08-20T16:07:47.136Z,3.27
2018-08-20T16:10:15.474Z,3.60
2018-08-20T16:12:43.678Z,3.22
2018-08-20T16:15:11.928Z,3.27
2018-08-20T16:17:40.182Z,3.50
2018-08-20T16:20:08.503Z,3.05
2018-08-20T16:22:37.065Z,3.58
2018-08-20T16:25:07.178Z,3.08
2018-08-20T16:27:35.712Z,3.60
2018-08-20T16:30:06.545Z,3.58
2018-08-20T16:32:34.787Z,3.22
2018-08-20T16:35:06.373Z,3.60
2018-08-20T16:37:34.634Z,3.60
2018-08-20T16:40:02.975Z,3.77
2018-08-20T16:42:31.192Z,3.87
2018-08-20T16:44:59.427Z,3.47
2018-08-20T16:47:27.737Z,3.55
2018-08-20T16:49:57.177Z,3.27
2018-08-20T16:52:26.197Z,3.33
2018-08-20T16:54:55.969Z,3.70
2018-08-20T16:57:24.717Z,3.08
2018-08-20T16:59:53.774Z,3.20
2018-08-20T17:02:29.197Z,3.30
2018-08-20T17:04:57.746Z,3.70
2018-08-20T17:07:26.877Z,3.75
2018-08-20T17:09:55.848Z,3.25
2018-08-20T17:12:24.937Z,3.02
2018-08-20T17:14:53.959Z,3.75
2018-08-20T17:17:22.909Z,3.58
2018-08-20T17:19:52.027Z,3.35
2018-08-20T17:22:22.033Z,3.40
2018-08-20T17:24:56.744Z,3.33
2018-08-20T17:27:25.744Z,2.85
2018-08-20T17:29:55.575Z,3.25
2018-08-20T17:32:24.481Z,3.05
2018-08-20T17:34:53.746Z,3.10
2018-08-20T17:37:22.713Z,3.22
2018-08-20T17:40:01.625Z,3.08
2018-08-20T17:42:32.127Z,2.55
2018-08-20T17:45:02.116Z,3.02
2018-08-20T17:47:31.865Z,3.12
2018-08-20T17:50:01.444Z,3.15
2018-08-20T17:52:32.881Z,2.47
2018-08-20T17:55:03.480Z,3.00
2018-08-20T17:57:33.191Z,2.72
2018-08-20T18:00:28.715Z,2.85
2018-08-20T18:02:56.969Z,3.02
2018-08-20T18:05:25.755Z,2.80
2018-08-20T18:07:54.604Z,3.17
2018-08-20T18:10:22.895Z,2.67
2018-08-20T18:12:51.256Z,2.33
2018-08-20T18:15:19.621Z,2.83
2018-08-20T18:17:47.949Z,3.47
2018-08-20T18:20:16.163Z,3.05
2018-08-20T18:22:44.368Z,2.85
2018-08-20T18:25:12.702Z,3.00
2018-08-20T18:27:44.120Z,2.85
2018-08-20T18:30:13.756Z,3.15
2018-08-20T18:32:41.968Z,3.00
2018-08-20T18:35:10.191Z,3.65
2018-08-20T18:37:42.922Z,3.47
2018-08-20T18:40:11.241Z,3.08
2018-08-20T18:42:44.867Z,3.60
2018-08-20T18:45:13.171Z,3.58
2018-08-20T18:47:41.368Z,3.95
2018-08-20T18:50:10.215Z,3.92
2018-08-20T18:52:38.429Z,3.47
2018-08-20T18:55:07.508Z,3.75
2018-08-20T18:57:36.956Z,3.58
2018-08-20T19:00:11.174Z,4.10
2018-08-20T19:02:46.603Z,4.03
2018-08-20T19:05:16.004Z,4.25
2018-08-20T19:07:44.608Z,3.92
2018-08-20T19:10:25.061Z,4.50
2018-08-20T19:12:53.318Z,4.37
2018-08-20T19:15:55.596Z,4.22
2018-08-20T19:18:28.120Z,4.33
2018-08-20T19:20:56.354Z,4.28
2018-08-20T19:23:24.540Z,4.30
2018-08-20T19:25:52.756Z,4.40
2018-08-20T19:28:21.995Z,4.03
2018-08-20T19:30:51.170Z,3.85
2018-08-20T19:33:25.721Z,3.90
2018-08-20T19:35:54.651Z,4.37
2018-08-20T19:38:22.816Z,4.22
2018-08-20T19:41:03.553Z,4.62
2018-08-20T19:43:37.310Z,4.30
2018-08-20T19:46:05.647Z,4.05
2018-08-20T19:48:33.831Z,3.83
2018-08-20T19:51:04.336Z,4.25
2018-08-20T19:53:32.533Z,4.40
2018-08-20T19:56:00.743Z,3.83
2018-08-20T19:58:33.554Z,4.30
2018-08-20T20:01:08.587Z,4.10
2018-08-20T20:03:36.901Z,3.98
2018-08-20T20:06:05.219Z,4.20
2018-08-20T20:08:33.404Z,4.22
2018-08-20T20:11:01.571Z,4.50
2018-08-20T20:13:29.912Z,4.00
2018-08-20T20:15:59.900Z,4.00
2018-08-20T20:18:29.253Z,4.23
2018-08-20T20:20:57.521Z,4.20
2018-08-20T20:23:25.697Z,3.83
2018-08-20T20:25:53.855Z,3.90
2018-08-20T20:28:22.127Z,4.03
2018-08-20T20:30:50.386Z,4.40
2018-08-20T20:33:18.618Z,4.07
2018-08-20T20:35:47.993Z,3.77
2018-08-20T20:38:16.196Z,3.80
2018-08-20T20:40:45.145Z,3.53
2018-08-20T20:43:13.333Z,4.10
2018-08-20T20:45:41.521Z,4.30
2018-08-20T20:48:09.719Z,3.73
2018-08-20T20:50:37.889Z,3.73
2018-08-20T20:53:06.218Z,4.17
2018-08-20T20:55:34.393Z,4.10
2018-08-20T20:58:02.565Z,3.50
2018-08-20T21:00:30.729Z,3.80
2018-08-20T21:03:08.537Z,3.50
2018-08-20T21:05:37.007Z,4.80
2018-08-20T21:08:05.363Z,4.10
2018-08-20T21:10:39.089Z,3.70
2018-08-20T21:13:07.410Z,4.20
2018-08-20T21:15:35.855Z,4.17
2018-08-20T21:18:04.033Z,3.97
2018-08-20T21:20:32.221Z,4.03
2018-08-20T21:23:00.378Z,4.30
2018-08-20T21:25:28.746Z,4.07
2018-08-20T21:27:57.151Z,4.30
2018-08-20T21:30:26.285Z,3.80
2018-08-20T21:32:54.478Z,3.80
2018-08-20T21:35:22.740Z,4.03
2018-08-20T21:37:51.140Z,3.97
2018-08-20T21:40:28.680Z,4.00
2018-08-20T21:42:57.823Z,4.00
2018-08-20T21:45:26.002Z,3.80
2018-08-20T21:47:54.206Z,4.03
2018-08-20T21:50:22.448Z,3.97
2018-08-20T21:52:50.790Z,3.90
2018-08-20T21:55:18.962Z,4.10
2018-08-20T21:57:51.563Z,4.63
2018-08-20T22:00:20.761Z,4.53
2018-08-20T22:02:57.814Z,4.57
2018-08-20T22:05:26.233Z,4.80
2018-08-20T22:07:56.261Z,5.17
2018-08-20T22:10:25.352Z,5.07
2018-08-20T22:12:53.566Z,4.73
2018-08-20T22:15:21.775Z,4.80
2018-08-20T22:17:50.125Z,5.17
2018-08-20T22:20:18.944Z,4.73
2018-08-20T22:22:47.087Z,4.83
2018-08-20T22:25:16.074Z,5.00
2018-08-20T22:27:49.641Z,4.83
2018-08-20T22:30:17.920Z,4.80
2018-08-20T22:32:46.419Z,4.63
2018-08-20T22:35:24.293Z,4.73
2018-08-20T22:37:52.893Z,4.97
2018-08-20T22:40:22.160Z,5.07
2018-08-20T22:42:59.086Z,5.30
2018-08-20T22:45:27.277Z,5.03
2018-08-20T22:47:55.513Z,5.00
2018-08-20T22:50:23.719Z,4.83
2018-08-20T22:52:52.377Z,5.07
2018-08-20T22:55:21.724Z,5.33
2018-08-20T22:58:01.564Z,5.50
2018-08-20T23:00:29.968Z,5.30
2018-08-20T23:02:58.182Z,5.07
2018-08-20T23:05:29.050Z,5.47
2018-08-20T23:07:59.945Z,5.40
2018-08-20T23:10:28.233Z,5.33
2018-08-20T23:12:56.441Z,6.40
2018-08-20T23:15:24.656Z,5.50
2018-08-20T23:17:52.849Z,5.67
2018-08-20T23:20:27.287Z,5.43
2018-08-20T23:22:55.510Z,5.53
2018-08-20T23:25:23.705Z,5.83
2018-08-20T23:27:52.013Z,5.60
2018-08-20T23:30:20.357Z,5.80
2018-08-20T23:32:48.987Z,5.80
2018-08-20T23:35:17.162Z,6.83
2018-08-20T23:37:45.528Z,6.07
2018-08-20T23:40:13.783Z,5.60
2018-08-20T23:42:41.986Z,6.50
2018-08-20T23:45:10.162Z,5.50
2018-08-20T23:47:38.356Z,5.80
2018-08-20T23:50:06.918Z,5.50
2018-08-20T23:52:35.102Z,5.60
2018-08-20T23:55:03.300Z,6.73
2018-08-20T23:57:31.498Z,5.67
2018-08-20T23:59:59.683Z,6.17
